Time;durP1;ratioP1;P1;durP2;ratioP2;P2;SDS_P1;SDS_P2;PMS_P1;PMS_P2;Temp;Humidity;BMP_temperature;BMP_pressure;BME280_temperature;BME280_humidity;BME280_pressure;Samples;Min_cycle;Max_cycle;Signal;HPM_P1;HPM_P2
2021/08/28 00:02:08;;;;;;;;;2.00;2.00;;;;;20.23;49.45;101715.44;5040497;28;47307;-62
2021/08/28 00:04:34;;;;;;;;;2.25;2.00;;;;;20.20;49.29;101712.91;5040514;28;45381;-63
2021/08/28 00:07:00;;;;;;;;;3.25;1.25;;;;;20.19;49.74;101713.84;5040457;28;45312;-63
2021/08/28 00:09:26;;;;;;;;;1.00;1.00;;;;;20.17;49.54;101721.22;5040480;28;45638;-63
2021/08/28 00:11:51;;;;;;;;;1.00;1.00;;;;;20.16;49.86;101723.06;5040016;28;45429;-62
2021/08/28 00:14:17;;;;;;;;;2.00;1.00;;;;;20.15;49.74;101720.44;5040476;28;45292;-62
2021/08/28 00:16:42;;;;;;;;;2.75;1.75;;;;;20.14;50.04;101724.09;5040435;28;45281;-62
2021/08/28 00:19:08;;;;;;;;;2.25;2.00;;;;;20.10;49.99;101719.81;5040347;28;45470;-62
2021/08/28 00:21:34;;;;;;;;;1.75;1.25;;;;;20.09;49.87;101720.78;5040024;28;46203;-62
2021/08/28 00:24:00;;;;;;;;;2.00;1.00;;;;;20.10;50.22;101717.97;5040299;28;45264;-62
2021/08/28 00:26:26;;;;;;;;;1.00;1.00;;;;;20.05;50.30;101719.22;5039990;28;45398;-62
2021/08/28 00:28:51;;;;;;;;;2.25;2.25;;;;;20.03;50.31;101707.56;5040040;28;45398;-63
2021/08/28 00:31:16;;;;;;;;;2.75;1.00;;;;;19.97;50.25;101703.38;5039898;28;46034;-63
2021/08/28 00:33:42;;;;;;;;;2.00;1.00;;;;;19.97;51.10;101716.91;5040287;28;45380;-62
2021/08/28 00:36:07;;;;;;;;;3.00;1.75;;;;;19.80;50.87;101693.50;5039997;28;45288;-62
2021/08/28 00:38:32;;;;;;;;;2.50;1.00;;;;;19.92;50.84;101719.03;5039739;28;45295;-62
2021/08/28 00:40:58;;;;;;;;;3.50;3.00;;;;;19.91;50.99;101726.28;5039733;28;46259;-63
2021/08/28 00:43:30;;;;;;;;;2.00;2.00;;;;;19.90;51.05;101726.38;5039742;28;45372;-63
2021/08/28 00:45:55;;;;;;;;;5.50;2.00;;;;;19.88;51.37;101725.56;5039989;28;45208;-62
2021/08/28 00:48:20;;;;;;;;;0.75;0.75;;;;;19.87;51.39;101727.41;5040052;28;45314;-63
2021/08/28 00:50:46;;;;;;;;;1.00;1.00;;;;;19.85;51.22;101728.47;5039327;28;45237;-62
2021/08/28 00:53:14;;;;;;;;;0.00;0.00;;;;;19.83;51.43;101716.81;5039708;28;45340;-62
2021/08/28 00:55:45;;;;;;;;;1.50;1.00;;;;;19.84;51.79;101722.16;5039589;28;45268;-62
2021/08/28 00:58:10;;;;;;;;;2.25;2.25;;;;;19.83;51.71;101714.09;5039275;28;45521;-63
2021/08/28 01:00:47;;;;;;;;;5.25;1.00;;;;;19.79;51.65;101716.13;5039425;28;46216;-62
2021/08/28 01:03:17;;;;;;;;;3.75;2.00;;;;;19.78;51.77;101712.53;5039667;28;45417;-62
2021/08/28 01:06:21;;;;;;;;;3.75;1.50;;;;;19.77;51.77;101713.50;5039916;28;45416;-62
2021/08/28 01:08:53;;;;;;;;;1.50;1.50;;;;;19.76;51.77;101719.00;4997604;28;45456;-63
2021/08/28 01:11:40;;;;;;;;;1.00;1.00;;;;;19.73;51.64;101711.00;5032471;28;46291;-62
2021/08/28 01:14:14;;;;;;;;;0.75;0.75;;;;;19.75;52.00;101701.88;5038679;28;45459;-62
2021/08/28 01:16:54;;;;;;;;;2.75;2.75;;;;;19.74;51.90;101696.50;5039576;28;45310;-62
2021/08/28 01:19:36;;;;;;;;;1.00;1.00;;;;;19.74;52.03;101699.22;5039776;28;45313;-62
2021/08/28 01:22:05;;;;;;;;;2.00;2.00;;;;;19.72;52.11;101702.00;5039761;28;46668;-62
2021/08/28 01:24:31;;;;;;;;;2.00;2.00;;;;;19.71;52.28;101711.09;5039258;28;45460;-62
2021/08/28 01:27:21;;;;;;;;;0.00;0.00;;;;;19.70;51.96;101706.63;5039638;28;45340;-62
2021/08/28 01:29:49;;;;;;;;;1.00;1.00;;;;;19.68;52.20;101697.72;5039000;28;45562;-63
2021/08/28 01:32:17;;;;;;;;;3.00;3.00;;;;;19.66;52.33;101696.06;5039458;28;46988;-62
2021/08/28 01:34:44;;;;;;;;;2.75;2.50;;;;;19.63;52.24;101689.84;5039101;28;45317;-62
2021/08/28 01:37:12;;;;;;;;;0.25;0.00;;;;;19.60;52.21;101690.03;5039539;28;45406;-62
2021/08/28 01:39:38;;;;;;;;;6.50;3.00;;;;;19.60;52.49;101691.88;5025672;28;45520;-62
2021/08/28 01:42:05;;;;;;;;;4.00;2.25;;;;;19.58;52.13;101693.78;5039055;28;45991;-62
2021/08/28 01:44:32;;;;;;;;;1.75;1.75;;;;;19.62;52.55;101696.22;5039357;28;45300;-62
2021/08/28 01:46:57;;;;;;;;;2.00;2.00;;;;;19.64;52.58;101704.25;5039254;28;45293;-62
2021/08/28 01:49:24;;;;;;;;;2.00;2.00;;;;;19.61;52.55;101699.91;5039304;28;45390;-62
2021/08/28 01:51:50;;;;;;;;;0.75;0.75;;;;;19.58;52.73;101694.66;5039015;28;46227;-63
2021/08/28 01:54:15;;;;;;;;;1.50;1.50;;;;;19.58;52.59;101699.22;5039353;28;45280;-62
2021/08/28 01:56:41;;;;;;;;;3.50;2.00;;;;;19.58;52.78;101701.91;5038954;28;45889;-62
2021/08/28 01:59:07;;;;;;;;;2.00;2.00;;;;;19.54;52.63;101698.47;5039234;28;45443;-62
2021/08/28 02:01:32;;;;;;;;;1.75;1.75;;;;;19.56;52.75;101698.38;5038828;28;46108;-62
2021/08/28 02:03:58;;;;;;;;;2.00;2.00;;;;;19.53;52.86;101701.25;5041246;28;45179;-62
2021/08/28 02:06:26;;;;;;;;;1.00;1.00;;;;;19.57;52.48;101714.56;5042584;28;45410;-62
2021/08/28 02:08:59;;;;;;;;;3.50;3.00;;;;;19.47;52.71;101701.63;5042499;28;45308;-62
2021/08/28 02:11:33;;;;;;;;;2.25;1.50;;;;;19.52;52.79;101700.41;5041810;28;46113;-62
2021/08/28 02:14:06;;;;;;;;;1.50;1.50;;;;;19.53;52.79;101707.56;5041103;28;45275;-62
2021/08/28 02:16:34;;;;;;;;;2.75;2.00;;;;;19.54;52.87;101714.72;5042321;28;45461;-62
2021/08/28 02:19:10;;;;;;;;;1.50;1.00;;;;;19.52;53.02;101722.06;5042288;28;45303;-62
2021/08/28 02:21:37;;;;;;;;;1.75;1.75;;;;;19.50;52.83;101723.13;5041907;28;45248;-62
2021/08/28 02:24:09;;;;;;;;;1.75;1.75;;;;;19.47;53.18;101723.28;5042263;28;45269;-62
2021/08/28 02:26:59;;;;;;;;;2.25;2.00;;;;;19.43;53.37;101720.72;5041818;28;45272;-62
2021/08/28 02:29:31;;;;;;;;;1.75;1.75;;;;;19.41;53.60;101706.41;5041684;28;45422;-62
2021/08/28 02:31:59;;;;;;;;;3.00;3.00;;;;;19.38;53.16;101709.28;5042229;28;45403;-62
2021/08/28 02:34:28;;;;;;;;;3.00;1.50;;;;;19.43;53.10;101723.44;5041949;28;45443;-62
2021/08/28 02:36:54;;;;;;;;;1.00;1.00;;;;;19.42;53.28;101716.25;5041983;28;45436;-62
2021/08/28 02:39:22;;;;;;;;;2.50;2.00;;;;;19.40;53.57;101717.31;5041664;28;45283;-62
2021/08/28 02:41:48;;;;;;;;;4.00;2.00;;;;;19.35;53.55;101720.28;5041457;28;45360;-62
2021/08/28 02:44:15;;;;;;;;;3.25;2.25;;;;;19.33;53.35;101721.28;5041618;28;45477;-62
2021/08/28 02:46:42;;;;;;;;;1.00;1.00;;;;;19.32;53.60;101725.84;5041926;28;45326;-62
2021/08/28 02:49:10;;;;;;;;;3.00;1.50;;;;;19.19;53.60;101703.97;5041731;28;45316;-62
2021/08/28 02:51:37;;;;;;;;;1.00;1.00;;;;;19.28;53.69;101717.97;5041675;28;46118;-62
2021/08/28 02:54:04;;;;;;;;;4.00;1.00;;;;;19.23;53.64;101710.97;5041367;28;45338;-62
2021/08/28 02:56:32;;;;;;;;;0.50;0.50;;;;;19.25;53.88;101710.91;5041926;28;45299;-62
2021/08/28 02:58:58;;;;;;;;;2.50;2.50;;;;;19.27;54.00;101708.13;5041261;28;45497;-62
2021/08/28 03:01:26;;;;;;;;;4.75;2.75;;;;;19.23;53.70;101710.97;5041523;28;46164;-62
2021/08/28 03:03:53;;;;;;;;;1.00;0.75;;;;;19.27;54.15;101710.81;5041305;28;45373;-62
2021/08/28 03:06:19;;;;;;;;;4.50;2.00;;;;;19.27;53.56;101717.09;5041813;28;45300;-62
2021/08/28 03:08:45;;;;;;;;;5.00;1.00;;;;;19.25;54.10;101708.19;5041217;28;45513;-62
2021/08/28 03:11:12;;;;;;;;;2.00;2.00;;;;;19.28;54.00;101713.44;5041292;28;46660;-62
2021/08/28 03:13:38;;;;;;;;;4.50;2.50;;;;;19.25;53.77;101709.06;5041072;28;45173;-62
2021/08/28 03:16:04;;;;;;;;;2.00;2.00;;;;;19.23;54.51;101697.44;5041383;28;45379;-62
2021/08/28 03:18:36;;;;;;;;;2.75;1.75;;;;;19.27;54.08;101705.41;5041136;28;45224;-62
2021/08/28 03:21:01;;;;;;;;;2.75;1.75;;;;;19.21;53.94;101696.66;5041055;28;46565;-62
2021/08/28 03:23:30;;;;;;;;;2.75;1.25;;;;;19.24;54.30;101707.31;5041317;28;45451;-62
2021/08/28 03:25:57;;;;;;;;;3.25;2.00;;;;;19.22;54.02;101701.09;5041080;28;45345;-62
2021/08/28 03:28:23;;;;;;;;;1.75;1.75;;;;;19.25;54.11;101705.47;5040643;28;45517;-62
2021/08/28 03:30:49;;;;;;;;;4.00;2.75;;;;;19.16;54.17;101701.44;5040969;28;45602;-62
2021/08/28 03:33:17;;;;;;;;;2.00;2.00;;;;;19.20;54.38;101713.84;5041093;28;45506;-62
2021/08/28 03:35:45;;;;;;;;;2.00;1.00;;;;;19.16;54.30;101706.84;5041039;28;45259;-62
2021/08/28 03:38:11;;;;;;;;;2.75;1.75;;;;;19.15;54.47;101705.09;5040626;28;45419;-62
2021/08/28 03:40:38;;;;;;;;;3.00;1.00;;;;;19.13;54.71;101696.19;5040711;28;46109;-62
2021/08/28 03:43:04;;;;;;;;;3.75;2.25;;;;;19.18;54.54;101704.94;5040677;28;45400;-62
2021/08/28 03:45:30;;;;;;;;;2.00;2.00;;;;;19.19;54.25;101703.09;5040858;28;45249;-62
2021/08/28 03:47:56;;;;;;;;;4.25;1.50;;;;;19.20;54.35;101704.84;5040790;28;45498;-62
2021/08/28 03:50:22;;;;;;;;;3.75;3.00;;;;;19.17;54.34;101699.59;5040605;28;46298;-62
2021/08/28 03:52:47;;;;;;;;;2.00;2.00;;;;;19.14;54.24;101697.91;5040813;28;45244;-62
2021/08/28 03:55:13;;;;;;;;;3.50;3.50;;;;;19.18;54.72;101704.06;5040892;28;45272;-62
2021/08/28 03:57:38;;;;;;;;;2.00;1.50;;;;;19.14;54.47;101699.75;5040482;28;45506;-62
2021/08/28 04:00:05;;;;;;;;;2.50;2.00;;;;;19.14;54.31;101703.34;5040291;28;46340;-62
2021/08/28 04:02:30;;;;;;;;;1.50;1.25;;;;;19.13;54.82;101701.59;5040548;28;45465;-62
2021/08/28 04:04:55;;;;;;;;;2.00;2.00;;;;;19.15;54.67;101699.69;5040723;28;45234;-62
2021/08/28 04:07:21;;;;;;;;;2.00;2.00;;;;;19.16;54.67;101703.25;5040682;28;45517;-62
2021/08/28 04:09:46;;;;;;;;;3.00;1.25;;;;;19.16;54.31;101704.16;5040189;28;46283;-62
2021/08/28 04:12:12;;;;;;;;;2.00;1.25;;;;;19.16;54.45;101706.84;5040430;28;45363;-62
2021/08/28 04:14:37;;;;;;;;;2.00;1.00;;;;;19.16;54.37;101700.56;5040463;28;45311;-62
2021/08/28 04:17:03;;;;;;;;;3.00;2.00;;;;;19.13;54.54;101695.28;5040449;28;45208;-62
2021/08/28 04:19:28;;;;;;;;;1.00;1.00;;;;;19.11;54.45;101700.81;5040391;28;46589;-62
2021/08/28 04:21:53;;;;;;;;;1.00;1.00;;;;;19.12;54.73;101704.38;5040302;28;45441;-62
2021/08/28 04:24:18;;;;;;;;;2.00;2.00;;;;;19.11;54.68;101699.91;5040552;28;45346;-62
2021/08/28 04:26:44;;;;;;;;;3.00;1.25;;;;;19.12;55.23;101701.69;5039331;28;45244;-62
2021/08/28 04:29:09;;;;;;;;;4.00;2.25;;;;;19.11;54.95;101706.22;5039704;28;46014;-62
2021/08/28 04:31:35;;;;;;;;;3.00;3.00;;;;;19.08;54.85;101700.97;5040260;28;45318;-62
2021/08/28 04:34:00;;;;;;;;;3.25;2.00;;;;;19.11;55.22;101703.53;5040102;28;45283;-62
2021/08/28 04:36:25;;;;;;;;;1.75;1.75;;;;;19.12;54.91;101704.38;5040099;28;45306;-62
2021/08/28 04:38:51;;;;;;;;;6.00;3.00;;;;;19.05;54.94;101696.59;5039719;28;45871;-62
2021/08/28 04:41:16;;;;;;;;;2.00;2.00;;;;;19.11;54.69;101706.22;5039753;28;45260;-62
2021/08/28 04:43:41;;;;;;;;;1.00;1.00;;;;;19.11;54.57;101714.34;5040198;28;45323;-62
2021/08/28 04:46:07;;;;;;;;;1.75;1.75;;;;;19.10;55.05;101707.19;5039767;28;46107;-62
2021/08/28 04:48:33;;;;;;;;;3.00;2.25;;;;;19.11;54.77;101710.75;5039882;28;46159;-62
2021/08/28 04:50:58;;;;;;;;;2.50;2.50;;;;;19.07;54.44;101700.06;5039936;28;45269;-62
2021/08/28 04:53:24;;;;;;;;;4.25;2.00;;;;;19.09;54.48;101702.72;5038948;28;45264;-62
2021/08/28 04:55:49;;;;;;;;;4.25;2.75;;;;;19.05;54.69;101702.00;5039690;28;45577;-62
2021/08/28 04:58:15;;;;;;;;;2.75;1.75;;;;;19.03;54.66;101694.94;5039467;28;45302;-62
2021/08/28 05:00:40;;;;;;;;;3.25;2.00;;;;;19.06;54.68;101708.28;5039498;28;45361;-62
2021/08/28 05:03:06;;;;;;;;;3.00;2.00;;;;;18.99;54.92;101704.16;5040014;28;45188;-62
2021/08/28 05:05:31;;;;;;;;;3.25;1.25;;;;;19.03;54.67;101712.03;5039604;28;45550;-62
2021/08/28 05:07:57;;;;;;;;;3.50;1.50;;;;;19.00;54.68;101705.91;5039689;28;45354;-62
2021/08/28 05:10:23;;;;;;;;;2.50;2.50;;;;;19.00;55.08;101714.03;5039458;28;45264;-62
2021/08/28 05:12:48;;;;;;;;;3.75;2.25;;;;;19.02;55.00;101721.09;5039681;28;45264;-62
2021/08/28 05:15:13;;;;;;;;;3.75;2.50;;;;;19.01;54.99;101721.19;5039406;28;45623;-62
2021/08/28 05:17:39;;;;;;;;;1.75;1.25;;;;;19.01;55.36;101721.19;5039548;28;46139;-62
2021/08/28 05:20:05;;;;;;;;;0.25;0.25;;;;;19.00;55.24;101720.31;5039401;28;45336;-62
2021/08/28 05:22:30;;;;;;;;;2.25;2.00;;;;;18.97;54.95;101715.06;5039823;28;45302;-62
2021/08/28 05:24:55;;;;;;;;;3.00;3.00;;;;;19.00;55.12;101716.75;5039301;28;45545;-62
2021/08/28 05:27:21;;;;;;;;;3.75;2.50;;;;;19.00;55.55;101724.84;5039329;28;46193;-62
2021/08/28 05:29:46;;;;;;;;;3.75;3.50;;;;;18.95;55.44;101711.56;5038965;28;45324;-62
2021/08/28 05:32:12;;;;;;;;;2.00;2.00;;;;;18.89;55.36;101709.16;5039719;28;45380;-62
2021/08/28 05:34:37;;;;;;;;;1.50;1.50;;;;;18.99;55.31;101720.38;5039266;28;45216;-62
2021/08/28 05:37:02;;;;;;;;;3.00;3.00;;;;;18.96;55.61;101715.13;5039246;28;45220;-62
2021/08/28 05:39:30;;;;;;;;;4.75;3.25;;;;;18.93;55.54;101716.19;5041810;28;45395;-62
2021/08/28 05:41:55;;;;;;;;;3.50;3.25;;;;;18.94;55.81;101714.34;5042594;28;45336;-62
2021/08/28 05:44:21;;;;;;;;;3.75;2.50;;;;;18.97;55.40;101722.31;5042662;28;45203;-62
2021/08/28 05:46:46;;;;;;;;;2.00;2.00;;;;;18.98;55.30;101722.22;5042647;28;46094;-62
2021/08/28 05:49:11;;;;;;;;;4.00;3.25;;;;;18.98;55.75;101729.47;5042260;28;51402;-62
2021/08/28 05:51:36;;;;;;;;;4.00;1.50;;;;;18.94;55.38;101714.34;5042904;28;45233;-62
2021/08/28 05:54:02;;;;;;;;;4.00;3.00;;;;;18.97;55.53;101719.59;5042487;28;45444;-62
2021/08/28 05:56:27;;;;;;;;;3.00;2.00;;;;;18.98;55.36;101719.53;5042310;28;46053;-62
2021/08/28 05:58:52;;;;;;;;;3.00;3.00;;;;;19.00;56.02;101722.16;5042279;28;45375;-62
2021/08/28 06:01:18;;;;;;;;;4.25;2.00;;;;;18.98;55.46;101727.63;5042580;28;45295;-62
2021/08/28 06:03:43;;;;;;;;;3.00;3.00;;;;;18.99;55.38;101725.78;5042512;28;45382;-62
2021/08/28 06:06:08;;;;;;;;;1.00;1.00;;;;;18.90;55.98;101704.66;5042407;28;45450;-62
2021/08/28 06:08:34;;;;;;;;;7.00;4.00;;;;;18.97;55.84;101727.72;5042182;28;45439;-62
2021/08/28 06:10:59;;;;;;;;;3.75;2.50;;;;;18.97;55.74;101722.31;5042298;28;45826;-62
2021/08/28 06:13:24;;;;;;;;;2.25;2.00;;;;;18.97;55.77;101727.72;5042065;28;45442;-62
2021/08/28 06:15:50;;;;;;;;;3.25;2.00;;;;;18.93;55.60;101718.88;5042175;28;45299;-62
2021/08/28 06:18:15;;;;;;;;;3.00;2.00;;;;;18.95;55.87;101722.38;5041992;28;45414;-62
2021/08/28 06:20:40;;;;;;;;;2.00;2.00;;;;;18.96;55.62;101723.25;5042302;28;45471;-62
2021/08/28 06:23:06;;;;;;;;;3.00;2.75;;;;;18.98;55.70;101733.06;5042163;28;45498;-62
2021/08/28 06:25:31;;;;;;;;;4.25;3.00;;;;;18.96;56.04;101728.66;5042038;28;45332;-62
2021/08/28 06:27:56;;;;;;;;;5.75;3.00;;;;;18.97;55.92;101725.88;5041710;28;45397;-62
2021/08/28 06:30:22;;;;;;;;;3.50;2.00;;;;;19.00;56.15;101731.13;5041828;28;45216;-62
2021/08/28 06:32:47;;;;;;;;;3.75;3.00;;;;;19.00;55.67;101732.97;5041999;28;45203;-62
2021/08/28 06:35:13;;;;;;;;;4.25;3.00;;;;;18.99;56.14;101731.22;5042029;28;46927;-62
2021/08/28 06:37:38;;;;;;;;;3.75;3.00;;;;;19.01;56.36;101734.69;5041887;28;45296;-62
2021/08/28 06:40:04;;;;;;;;;3.75;2.50;;;;;18.97;56.12;101731.28;5041759;28;45263;-62
2021/08/28 06:42:29;;;;;;;;;2.75;1.75;;;;;19.05;56.03;101739.03;5041510;28;45325;-62
2021/08/28 06:44:54;;;;;;;;;5.75;2.25;;;;;19.05;56.20;101736.31;5041564;28;52000;-62
2021/08/28 06:47:20;;;;;;;;;3.00;2.00;;;;;19.04;56.72;101743.56;5041496;28;48575;-62
2021/08/28 06:49:45;;;;;;;;;1.50;1.50;;;;;19.05;56.63;101739.88;5041296;28;45303;-62
2021/08/28 06:52:10;;;;;;;;;3.00;2.00;;;;;19.04;56.33;101738.16;5041678;28;45421;-62
2021/08/28 06:54:36;;;;;;;;;3.50;3.00;;;;;19.03;56.35;101736.38;5041767;28;45381;-62
2021/08/28 06:57:01;;;;;;;;;3.25;2.00;;;;;19.02;56.86;101734.63;5041285;28;45147;-62
2021/08/28 06:59:26;;;;;;;;;5.00;3.75;;;;;19.07;56.29;101746.09;5041792;28;45220;-62
2021/08/28 07:01:52;;;;;;;;;3.50;3.50;;;;;19.10;56.79;101744.19;5041211;28;45339;-62
2021/08/28 07:04:17;;;;;;;;;3.50;3.00;;;;;19.10;56.43;101744.19;5041484;28;46121;-62
2021/08/28 07:06:42;;;;;;;;;4.25;3.00;;;;;19.10;56.23;101747.75;5041259;28;45316;-62
2021/08/28 07:09:08;;;;;;;;;5.75;2.75;;;;;19.14;56.43;101749.34;5041570;28;45241;-62
2021/08/28 07:11:33;;;;;;;;;4.00;3.75;;;;;19.12;56.58;101745.84;5041230;28;45363;-62
2021/08/28 07:13:58;;;;;;;;;4.00;2.75;;;;;19.15;56.57;101752.94;5041107;28;45399;-62
2021/08/28 07:16:25;;;;;;;;;2.00;2.00;;;;;19.17;56.70;101749.19;5041190;28;45328;-62
2021/08/28 07:18:51;;;;;;;;;4.50;2.25;;;;;19.14;56.67;101737.66;5023563;28;45307;-62
2021/08/28 07:21:17;;;;;;;;;2.50;2.50;;;;;19.16;56.83;101736.63;5041072;28;45316;-62
2021/08/28 07:23:43;;;;;;;;;6.25;3.50;;;;;19.22;56.65;101751.66;5041139;28;45287;-62
2021/08/28 07:26:09;;;;;;;;;5.00;5.00;;;;;19.16;57.26;101733.91;5040906;28;45206;-62
2021/08/28 07:28:34;;;;;;;;;5.50;3.00;;;;;19.21;57.14;101739.97;5041186;28;45198;-62
2021/08/28 07:31:00;;;;;;;;;7.25;6.50;;;;;19.21;57.40;101748.09;5040950;28;45344;-62
2021/08/28 07:33:25;;;;;;;;;5.00;4.00;;;;;19.23;57.31;101746.16;5041128;28;46500;-62
2021/08/28 07:35:51;;;;;;;;;5.50;4.00;;;;;19.25;57.30;101746.94;5040806;28;45363;-62
2021/08/28 07:38:16;;;;;;;;;6.75;4.50;;;;;19.26;57.30;101745.09;5040717;28;45249;-62
2021/08/28 07:40:41;;;;;;;;;4.50;4.50;;;;;19.26;57.41;101747.81;5040815;28;45194;-62
2021/08/28 07:43:06;;;;;;;;;5.75;4.50;;;;;19.27;57.46;101748.72;5040654;28;45323;-62
2021/08/28 07:45:32;;;;;;;;;7.00;4.25;;;;;19.20;57.24;101737.34;5040576;28;45530;-62
2021/08/28 07:47:57;;;;;;;;;7.00;5.00;;;;;19.29;57.22;101753.06;5041063;28;45293;-62
2021/08/28 07:50:23;;;;;;;;;5.75;4.00;;;;;19.27;57.72;101744.16;5040638;28;45325;-62
2021/08/28 07:52:48;;;;;;;;;4.00;4.00;;;;;19.31;57.05;101750.28;5040737;28;46085;-62
2021/08/28 07:55:14;;;;;;;;;3.25;3.25;;;;;19.35;57.63;101749.19;5040691;28;45306;-62
2021/08/28 07:57:40;;;;;;;;;4.00;4.00;;;;;19.36;57.37;101749.09;5040542;28;45264;-62
2021/08/28 08:00:08;;;;;;;;;5.50;5.00;;;;;19.40;57.12;101752.53;5039981;28;45298;-62
2021/08/28 08:02:34;;;;;;;;;4.75;4.75;;;;;19.38;57.52;101743.63;5039827;28;45376;-62
2021/08/28 08:05:00;;;;;;;;;4.00;4.00;;;;;19.42;57.59;101743.34;5040522;28;45439;-62
2021/08/28 08:07:25;;;;;;;;;5.25;4.25;;;;;19.40;57.53;101733.56;5040708;28;45284;-62
2021/08/28 08:09:50;;;;;;;;;9.25;4.25;;;;;19.45;57.44;101747.72;5040314;28;45178;-62
2021/08/28 08:12:16;;;;;;;;;2.00;2.00;;;;;19.47;57.07;101747.66;5040251;28;45282;-62
2021/08/28 08:14:42;;;;;;;;;3.50;3.00;;;;;19.32;57.51;101723.13;5040216;28;45434;-62
2021/08/28 08:17:08;;;;;;;;;6.75;5.00;;;;;19.41;57.58;101740.72;5040501;28;45419;-62
2021/08/28 08:19:33;;;;;;;;;5.50;4.00;;;;;19.51;57.80;101758.25;5040285;28;45447;-62
2021/08/28 08:21:59;;;;;;;;;7.50;5.25;;;;;19.53;57.38;101758.13;5040237;28;45485;-62
2021/08/28 08:24:24;;;;;;;;;5.25;4.25;;;;;19.55;57.88;101758.94;5040083;28;45372;-62
2021/08/28 08:26:49;;;;;;;;;5.50;4.00;;;;;19.53;57.92;101758.13;5040249;28;45672;-62
2021/08/28 08:29:15;;;;;;;;;3.75;3.50;;;;;19.56;58.01;101768.78;5039830;28;45632;-62
2021/08/28 08:31:41;;;;;;;;;5.00;5.00;;;;;19.52;58.55;101757.25;5040422;28;45339;-62
2021/08/28 08:34:06;;;;;;;;;3.50;3.00;;;;;19.54;58.60;101759.88;5039946;28;45421;-62
2021/08/28 08:36:31;;;;;;;;;4.00;4.00;;;;;19.53;59.17;101750.91;5040471;28;45431;-62
2021/08/28 08:38:56;;;;;;;;;8.25;5.00;;;;;19.51;59.13;101742.00;5039819;28;45415;-62
2021/08/28 08:41:25;;;;;;;;;7.00;5.25;;;;;19.54;59.46;101740.94;5040049;28;45583;-62
2021/08/28 08:43:52;;;;;;;;;6.00;3.00;;;;;19.53;59.64;101744.59;5039824;28;45467;-62
2021/08/28 08:46:20;;;;;;;;;7.00;6.00;;;;;19.59;59.66;101753.25;5040148;28;45469;-62
2021/08/28 08:48:47;;;;;;;;;5.50;5.50;;;;;19.60;59.75;101754.16;5039898;28;45233;-62
2021/08/28 08:51:13;;;;;;;;;5.00;5.00;;;;;19.58;59.76;101754.22;5040094;28;46389;-63
2021/08/28 08:53:39;;;;;;;;;4.50;4.00;;;;;19.63;59.76;101749.44;5039972;28;45157;-63
2021/08/28 08:56:05;;;;;;;;;5.00;5.00;;;;;19.62;59.71;101760.34;5039982;28;45220;-63
2021/08/28 08:58:31;;;;;;;;;4.75;3.75;;;;;19.53;59.83;101745.47;5039633;28;46058;-62
2021/08/28 09:00:56;;;;;;;;;6.00;3.75;;;;;19.66;59.98;101767.34;5039848;28;47736;-62
2021/08/28 09:03:22;;;;;;;;;4.50;4.50;;;;;19.63;59.79;101745.88;5039620;28;45320;-63
2021/08/28 09:05:48;;;;;;;;;5.50;4.75;;;;;19.69;59.87;101755.47;5040141;28;45405;-62
2021/08/28 09:08:13;;;;;;;;;7.25;5.25;;;;;19.63;59.67;101751.28;5039513;28;45545;-63
2021/08/28 09:10:38;;;;;;;;;3.75;3.75;;;;;19.75;59.72;101763.31;5039946;28;45475;-62
2021/08/28 09:13:33;;;;;;;;;4.75;4.25;;;;;19.74;59.77;101764.22;5041531;28;45372;-63
2021/08/28 09:16:02;;;;;;;;;6.25;5.25;;;;;19.77;59.50;101764.09;5034344;28;45312;-63
2021/08/28 09:18:29;;;;;;;;;7.25;5.50;;;;;19.77;59.18;101762.25;5025141;28;45275;-62
2021/08/28 09:20:57;;;;;;;;;6.25;4.50;;;;;19.76;59.67;101757.81;5043040;28;46933;-63
2021/08/28 09:23:23;;;;;;;;;5.50;5.50;;;;;19.80;59.52;101763.94;5043113;28;45283;-63
2021/08/28 09:25:52;;;;;;;;;6.50;5.00;;;;;19.81;59.12;101760.25;5042770;28;45435;-62
2021/08/28 09:28:34;;;;;;;;;6.25;5.25;;;;;19.83;59.10;101766.47;5042775;28;45282;-63
2021/08/28 09:31:01;;;;;;;;;4.00;3.50;;;;;19.85;58.43;101763.69;5042739;28;46057;-62
2021/08/28 09:33:34;;;;;;;;;5.50;5.00;;;;;19.87;58.46;101775.31;5043096;28;45323;-62
2021/08/28 09:36:00;;;;;;;;;5.25;4.75;;;;;19.87;58.50;101778.00;5043177;28;45288;-62
2021/08/28 09:38:26;;;;;;;;;4.50;4.50;;;;;19.87;58.91;101773.47;5042512;28;46240;-62
2021/08/28 09:40:59;;;;;;;;;3.25;3.25;;;;;19.88;58.49;101772.50;5042319;28;46168;-62
2021/08/28 09:43:26;;;;;;;;;4.25;3.00;;;;;19.91;58.38;101777.78;5042829;28;45472;-62
2021/08/28 09:45:53;;;;;;;;;5.25;3.25;;;;;19.92;58.45;101763.25;5042896;28;45354;-63
2021/08/28 09:48:26;;;;;;;;;3.00;3.00;;;;;19.91;58.57;101755.19;5042748;28;45539;-63
2021/08/28 09:50:54;;;;;;;;;5.00;4.25;;;;;19.95;58.26;101756.78;5042574;28;46960;-62
2021/08/28 09:53:27;;;;;;;;;1.00;1.00;;;;;20.02;58.27;101765.44;5042705;28;45216;-63
2021/08/28 09:56:00;;;;;;;;;5.00;3.75;;;;;20.03;58.14;101759.94;5042407;28;45314;-62
2021/08/28 09:58:28;;;;;;;;;3.00;3.00;;;;;20.04;57.85;101755.38;5042469;28;45261;-63
2021/08/28 10:00:59;;;;;;;;;5.00;5.00;;;;;20.08;57.81;101752.44;5042316;28;46701;-62
2021/08/28 10:03:28;;;;;;;;;8.00;5.00;;;;;20.11;58.11;101764.91;5042422;28;45424;-63
2021/08/28 10:05:54;;;;;;;;;3.00;3.00;;;;;20.09;57.69;101758.72;5042602;28;45313;-63
2021/08/28 10:08:20;;;;;;;;;4.00;4.00;;;;;20.12;58.03;101753.13;5042182;28;45304;-63
2021/08/28 10:10:46;;;;;;;;;5.00;4.25;;;;;20.15;57.78;101747.53;5042138;28;45430;-62
2021/08/28 10:13:11;;;;;;;;;3.50;3.50;;;;;20.14;57.72;101751.19;5042164;28;45221;-62
2021/08/28 10:15:37;;;;;;;;;4.25;4.25;;;;;20.18;57.93;101761.78;5042482;28;45178;-63
2021/08/28 10:18:05;;;;;;;;;4.75;3.00;;;;;20.19;57.62;101749.09;5042053;28;45498;-63
2021/08/28 10:20:31;;;;;;;;;3.00;3.00;;;;;20.22;57.73;101761.63;5042181;28;46316;-63
2021/08/28 10:23:01;;;;;;;;;4.50;4.50;;;;;20.23;57.42;101750.69;5042088;28;45376;-63
2021/08/28 10:25:29;;;;;;;;;2.00;2.00;;;;;20.21;56.96;101747.16;5041474;28;45427;-63
2021/08/28 10:27:55;;;;;;;;;3.00;3.00;;;;;20.23;56.83;101744.38;5041750;28;45433;-62
2021/08/28 10:30:24;;;;;;;;;3.00;2.75;;;;;20.21;56.91;101732.75;5041625;28;46060;-63
2021/08/28 10:32:52;;;;;;;;;4.00;4.00;;;;;20.27;56.89;101751.38;5041905;28;45225;-63
2021/08/28 10:35:19;;;;;;;;;2.25;2.25;;;;;20.28;56.71;101751.28;5042170;28;45446;-63
2021/08/28 10:37:45;;;;;;;;;3.00;3.00;;;;;20.30;56.27;101746.66;5041680;28;45412;-62
2021/08/28 10:40:19;;;;;;;;;5.00;3.00;;;;;20.29;56.09;101742.19;5041475;28;45313;-63
2021/08/28 10:42:46;;;;;;;;;3.75;3.75;;;;;20.33;56.11;101741.06;5041610;28;45477;-63
2021/08/28 10:45:11;;;;;;;;;2.00;2.00;;;;;20.38;56.39;101737.19;5041887;28;45489;-63
2021/08/28 10:47:37;;;;;;;;;2.25;2.25;;;;;20.35;56.22;101739.13;5041654;28;45301;-63
2021/08/28 10:50:11;;;;;;;;;2.75;2.75;;;;;20.39;55.85;101741.66;5041581;28;45947;-63
2021/08/28 10:52:39;;;;;;;;;4.50;3.00;;;;;20.40;55.99;101735.25;5041595;28;45564;-63
2021/08/28 10:55:10;;;;;;;;;4.50;4.50;;;;;20.38;55.76;101735.38;5041812;28;45241;-63
2021/08/28 10:57:36;;;;;;;;;4.00;2.00;;;;;20.46;55.93;101735.78;5041516;28;45299;-63
2021/08/28 11:00:01;;;;;;;;;3.25;2.75;;;;;20.48;55.58;101735.69;5041177;28;47278;-62
2021/08/28 11:02:50;;;;;;;;;4.25;2.25;;;;;20.50;55.18;101737.34;5041588;28;45385;-63
2021/08/28 11:05:17;;;;;;;;;2.25;1.75;;;;;20.49;55.44;101732.03;5041705;28;45415;-63
2021/08/28 11:07:43;;;;;;;;;2.00;2.00;;;;;20.51;55.25;101739.13;5041619;28;45410;-63
2021/08/28 11:10:24;;;;;;;;;2.25;2.25;;;;;20.55;55.23;101739.81;5041178;28;46244;-63
2021/08/28 11:12:54;;;;;;;;;5.00;3.00;;;;;20.59;55.53;101738.66;5041187;28;45587;-63
2021/08/28 11:15:31;;;;;;;;;4.00;2.50;;;;;20.63;55.33;101737.56;5041288;28;45538;-63
2021/08/28 11:18:01;;;;;;;;;2.00;2.00;;;;;20.66;55.36;101736.47;5041126;28;45241;-63
2021/08/28 11:20:28;;;;;;;;;3.50;2.00;;;;;20.70;55.04;101729.94;5041163;28;46380;-63
2021/08/28 11:22:55;;;;;;;;;2.50;2.25;;;;;20.69;54.74;101723.59;5041136;28;45696;-63
2021/08/28 11:25:29;;;;;;;;;3.50;2.75;;;;;20.76;54.84;101728.69;5041476;28;45452;-63